Time;durP1;ratioP1;P1;durP2;ratioP2;P2;SDS_P1;SDS_P2;PMS_P1;PMS_P2;Temp;Humidity;BMP_temperature;BMP_pressure;BME280_temperature;BME280_humidity;BME280_pressure;Samples;Min_cycle;Max_cycle;Signal;HPM_P1;HPM_P2
2023/02/20 00:01:18;;;;;;;9.07;7.63;;;;;;;13.47;49.54;99624.59;5031522;28;20025;-79
2023/02/20 00:03:46;;;;;;;11.55;8.95;;;;;;;13.29;49.07;99594.06;5031506;28;20025;-80
2023/02/20 00:06:12;;;;;;;10.07;7.95;;;;;;;13.13;48.87;99578.41;5031340;28;20056;-80
2023/02/20 00:08:37;;;;;;;8.55;7.60;;;;;;;13.43;48.00;99602.94;5031536;28;20037;-81
2023/02/20 00:11:03;;;;;;;10.65;8.35;;;;;;;12.82;47.81;99506.44;5031538;28;20033;-80
2023/02/20 00:13:28;;;;;;;10.18;8.10;;;;;;;13.38;47.42;99580.63;5031291;28;20087;-80
2023/02/20 00:15:54;;;;;;;10.68;8.57;;;;;;;12.45;47.41;99423.63;5031299;28;20026;-80
2023/02/20 00:18:19;;;;;;;9.93;7.72;;;;;;;13.83;46.98;99629.69;5031338;28;20482;-80
2023/02/20 00:20:45;;;;;;;8.23;7.13;;;;;;;13.45;46.95;99569.09;5031612;28;20094;-80
2023/02/20 00:23:10;;;;;;;10.27;7.60;;;;;;;13.23;46.67;99536.50;5031280;28;20052;-80
2023/02/20 00:25:35;;;;;;;9.63;7.68;;;;;;;13.51;46.44;99570.94;5031625;28;20029;-80
2023/02/20 00:28:01;;;;;;;9.77;7.65;;;;;;;13.10;45.93;99493.97;5031283;28;20029;-80
2023/02/20 00:30:27;;;;;;;8.02;7.07;;;;;;;13.57;45.81;99585.25;5031543;28;20028;-80
2023/02/20 00:32:54;;;;;;;9.00;7.63;;;;;;;13.96;45.79;99638.53;5031203;28;20490;-80
2023/02/20 00:35:21;;;;;;;9.20;7.30;;;;;;;13.97;45.59;99632.19;5031326;28;20034;-80
2023/02/20 00:37:46;;;;;;;9.77;7.70;;;;;;;13.65;45.31;99579.78;5031243;28;20042;-80
2023/02/20 00:40:13;;;;;;;8.75;7.35;;;;;;;13.64;45.21;99576.31;5031395;28;20044;-79
2023/02/20 00:42:38;;;;;;;12.13;8.07;;;;;;;13.51;44.94;99559.53;5029923;28;20485;-79
2023/02/20 00:45:05;;;;;;;8.02;6.90;;;;;;;13.82;45.03;99602.31;5031008;28;20112;-80
2023/02/20 00:47:30;;;;;;;9.63;8.23;;;;;;;14.06;44.73;99634.69;5033037;28;20108;-80
2023/02/20 00:49:56;;;;;;;9.02;7.82;;;;;;;13.56;44.59;99576.50;5035010;28;20108;-80
2023/02/20 00:52:21;;;;;;;10.93;7.90;;;;;;;14.09;44.64;99642.25;5033561;28;20033;-79
2023/02/20 00:54:46;;;;;;;10.52;7.80;;;;;;;14.08;44.43;99630.81;5033767;28;20104;-79
2023/02/20 00:57:12;;;;;;;7.28;6.57;;;;;;;13.89;44.42;99605.81;5035035;28;20029;-80
2023/02/20 00:59:37;;;;;;;15.48;11.93;;;;;;;14.04;44.51;99640.19;5034903;28;20029;-80
2023/02/20 01:02:03;;;;;;;9.32;7.72;;;;;;;14.07;44.38;99637.13;5034785;28;20114;-80
2023/02/20 01:04:28;;;;;;;8.35;7.55;;;;;;;13.34;44.46;99525.34;5034955;28;20036;-79
2023/02/20 01:06:54;;;;;;;9.60;7.38;;;;;;;13.34;44.34;99543.09;5034834;28;20022;-79
2023/02/20 01:09:19;;;;;;;9.50;7.93;;;;;;;13.98;44.73;99640.97;5033434;28;20483;-80
2023/02/20 01:11:44;;;;;;;8.60;7.60;;;;;;;13.64;44.51;99580.81;5034464;28;20037;-79
2023/02/20 01:14:11;;;;;;;8.80;7.72;;;;;;;13.32;44.62;99545.94;5034497;28;20040;-80
2023/02/20 01:16:43;;;;;;;9.02;7.22;;;;;;;14.00;44.37;99639.78;5033066;28;20029;-80
2023/02/20 01:19:08;;;;;;;9.43;8.27;;;;;;;13.44;44.81;99554.19;5034435;28;20025;-80
2023/02/20 01:21:34;;;;;;;9.23;7.43;;;;;;;13.04;44.70;99498.22;5034364;28;20064;-80
2023/02/20 01:23:59;;;;;;;10.50;8.13;;;;;;;13.62;45.01;99620.81;5033254;28;20052;-80
2023/02/20 01:26:25;;;;;;;10.23;8.43;;;;;;;13.71;44.83;99612.69;5034326;28;20029;-80
2023/02/20 01:28:50;;;;;;;10.30;8.23;;;;;;;13.36;44.61;99547.19;5034220;28;20071;-80
2023/02/20 01:31:16;;;;;;;8.95;7.43;;;;;;;13.64;44.74;99604.69;5034350;28;20107;-80
2023/02/20 01:33:43;;;;;;;12.35;8.68;;;;;;;13.95;44.93;99654.66;5034203;28;20026;-80
2023/02/20 01:36:09;;;;;;;9.43;7.82;;;;;;;13.92;44.76;99649.72;5032931;28;20029;-80
2023/02/20 01:38:35;;;;;;;10.10;8.25;;;;;;;13.46;44.71;99588.47;5034129;28;20056;-79
2023/02/20 01:41:00;;;;;;;10.52;7.97;;;;;;;13.49;44.65;99591.56;5034015;28;20155;-80
2023/02/20 01:43:26;;;;;;;9.88;8.10;;;;;;;13.64;44.71;99620.59;5032723;28;20017;-80
2023/02/20 01:45:51;;;;;;;10.70;8.73;;;;;;;12.75;44.72;99481.72;5032670;28;20051;-80
2023/02/20 01:48:21;;;;;;;11.60;8.65;;;;;;;13.81;44.80;99652.94;5034008;28;20508;-80
2023/02/20 01:50:49;;;;;;;10.85;8.23;;;;;;;13.80;44.92;99651.31;5033993;28;20026;-80
2023/02/20 01:53:18;;;;;;;11.48;8.73;;;;;;;13.08;44.72;99534.94;5033740;28;20054;-80
2023/02/20 01:55:54;;;;;;;10.13;8.43;;;;;;;13.31;44.86;99586.72;5033844;28;20107;-79
2023/02/20 01:58:24;;;;;;;13.65;8.93;;;;;;;13.39;44.68;99599.03;5033459;28;20033;-80
2023/02/20 02:00:50;;;;;;;11.90;9.38;;;;;;;13.04;44.65;99542.47;5032742;28;20391;-80
2023/02/20 02:03:24;;;;;;;14.95;8.70;;;;;;;13.66;44.94;99677.78;5033902;28;20079;-80
2023/02/20 02:05:57;;;;;;;12.75;9.30;;;;;;;13.37;44.73;99627.56;5033861;28;20105;-80
2023/02/20 02:08:24;;;;;;;9.52;8.23;;;;;;;13.20;44.78;99581.13;5032368;28;20033;-80
2023/02/20 02:11:05;;;;;;;12.80;9.23;;;;;;;13.62;44.63;99659.78;5032251;28;20029;-80
2023/02/20 02:13:32;;;;;;;11.02;9.00;;;;;;;13.55;44.47;99653.63;5033403;28;20026;-80
2023/02/20 02:16:22;;;;;;;10.70;7.43;;;;;;;13.73;44.34;99674.34;5033474;28;20024;-80
2023/02/20 02:19:05;;;;;;;11.75;8.77;;;;;;;13.76;44.23;99680.06;5033293;28;20033;-80
2023/02/20 02:22:08;;;;;;;9.27;8.15;;;;;;;13.78;44.08;99695.78;5032120;28;20489;-80
2023/02/20 02:24:52;;;;;;;10.18;8.40;;;;;;;13.79;43.96;99686.81;5033524;28;20487;-80
2023/02/20 02:28:00;;;;;;;11.35;7.88;;;;;;;13.81;43.88;99700.72;5033550;28;20040;-80
2023/02/20 02:30:46;;;;;;;11.25;7.63;;;;;;;13.77;44.13;99716.22;5032221;28;20033;-80
2023/02/20 02:33:33;;;;;;;9.85;8.07;;;;;;;13.77;43.95;99705.59;5033175;28;20060;-80
2023/02/20 02:36:12;;;;;;;11.32;8.82;;;;;;;13.33;43.99;99643.03;5031794;28;20030;-80
2023/02/20 02:38:52;;;;;;;11.88;8.45;;;;;;;13.80;43.99;99715.81;5033016;28;20029;-79
2023/02/20 02:41:33;;;;;;;11.25;7.88;;;;;;;13.09;43.78;99640.78;5031795;28;20064;-80
2023/02/20 02:44:04;;;;;;;9.45;7.88;;;;;;;13.77;44.15;99724.16;5032945;28;20521;-80
2023/02/20 02:47:01;;;;;;;12.43;8.75;;;;;;;13.78;43.94;99722.34;5032932;28;20483;-79
2023/02/20 02:49:50;;;;;;;11.90;8.18;;;;;;;13.73;43.98;99728.22;5031574;28;20034;-80
2023/02/20 02:52:37;;;;;;;11.00;8.82;;;;;;;13.44;44.15;99688.63;5032720;28;20025;-80
2023/02/20 02:55:12;;;;;;;9.52;8.52;;;;;;;13.75;44.44;99771.31;5032634;28;20033;-80
2023/02/20 02:57:38;;;;;;;9.82;8.63;;;;;;;13.47;44.20;99706.81;5032671;28;20036;-80
2023/02/20 03:00:11;;;;;;;10.93;7.60;;;;;;;13.75;44.33;99750.06;5032679;28;20021;-80
2023/02/20 03:03:22;;;;;;;12.45;9.05;;;;;;;13.08;44.18;99652.41;5032857;28;20017;-80
2023/02/20 03:06:06;;;;;;;9.50;8.45;;;;;;;13.64;44.43;99745.31;5030557;28;20407;-80
2023/02/20 03:08:56;;;;;;;9.60;7.72;;;;;;;13.39;44.29;99704.31;5031768;28;20056;-80
2023/02/20 03:11:24;;;;;;;14.02;8.98;;;;;;;13.18;44.64;99703.28;5032523;28;20032;-80
2023/02/20 03:17:06;;;;;;;10.60;8.63;;;;;;;13.48;44.63;99743.75;5032807;28;20036;-80
2023/02/20 03:19:41;;;;;;;9.02;7.57;;;;;;;13.31;44.67;99726.44;5032353;28;20517;-80
2023/02/20 03:22:14;;;;;;;10.57;8.40;;;;;;;12.74;44.64;99655.75;5032287;28;20492;-80
2023/02/20 03:24:55;;;;;;;10.43;8.50;;;;;;;13.42;45.04;99783.47;5032426;28;20034;-80
2023/02/20 03:27:37;;;;;;;10.68;8.95;;;;;;;13.44;44.79;99768.19;5031100;28;20033;-80
2023/02/20 03:30:08;;;;;;;10.80;7.97;;;;;;;13.01;44.59;99720.44;5032087;28;20020;-80
2023/02/20 03:43:44;;;;;;;12.63;9.30;;;;;;;12.97;44.85;99732.44;5031889;28;20480;-79
2023/02/20 03:46:17;;;;;;;9.23;8.23;;;;;;;13.02;44.83;99744.09;5030408;28;20036;-79
2023/02/20 03:48:45;;;;;;;12.48;8.52;;;;;;;13.25;45.19;99794.31;5030410;28;20465;-80
2023/02/20 03:51:11;;;;;;;12.90;8.65;;;;;;;13.07;45.27;99778.00;5031752;28;20056;-80
2023/02/20 03:53:38;;;;;;;12.25;9.25;;;;;;;13.20;45.03;99794.06;5031569;28;20125;-80
2023/02/20 03:56:09;;;;;;;10.02;8.85;;;;;;;12.58;45.43;99696.53;5031612;28;20482;-80
2023/02/20 03:58:40;;;;;;;11.30;8.65;;;;;;;12.95;45.10;99750.34;5031657;28;20034;-80
2023/02/20 04:01:08;;;;;;;10.38;8.75;;;;;;;13.23;45.37;99792.88;5031560;28;20032;-80
2023/02/20 04:03:39;;;;;;;10.38;8.82;;;;;;;12.47;45.56;99667.06;5031498;28;20498;-79
2023/02/20 04:06:07;;;;;;;9.07;7.85;;;;;;;12.71;45.43;99702.00;5031419;28;20036;-80
2023/02/20 04:08:42;;;;;;;10.65;9.10;;;;;;;13.05;46.00;99780.00;5031662;28;20029;-80
2023/02/20 04:11:17;;;;;;;13.93;10.80;;;;;;;12.43;46.04;99682.50;5031217;28;20033;-80
2023/02/20 04:13:43;;;;;;;9.57;8.32;;;;;;;12.90;46.19;99750.09;5029912;28;20498;-80
2023/02/20 04:16:10;;;;;;;12.50;9.80;;;;;;;12.86;45.84;99748.81;5031222;28;20039;-80
2023/02/20 04:18:35;;;;;;;13.23;7.80;;;;;;;12.77;45.98;99726.91;5031181;28;20040;-80
2023/02/20 04:21:07;;;;;;;10.05;9.05;;;;;;;13.07;46.38;99775.34;5030988;28;20026;-80
2023/02/20 04:23:36;;;;;;;11.25;8.73;;;;;;;12.71;46.10;99738.25;5029837;28;20466;-80
2023/02/20 04:26:21;;;;;;;13.13;9.45;;;;;;;12.96;46.08;99771.34;5031129;28;20545;-80
2023/02/20 04:28:47;;;;;;;9.77;8.60;;;;;;;13.04;46.18;99788.97;5029830;28;20032;-79
2023/02/20 04:31:14;;;;;;;11.75;10.50;;;;;;;12.87;46.15;99779.59;5031191;28;20034;-80
2023/02/20 04:33:40;;;;;;;9.55;8.55;;;;;;;12.85;46.13;99777.16;5029816;28;20017;-80
2023/02/20 04:36:06;;;;;;;10.68;8.88;;;;;;;12.49;46.11;99744.50;5031311;28;20029;-80
2023/02/20 04:38:31;;;;;;;9.52;8.48;;;;;;;12.36;46.52;99711.56;5029791;28;20029;-79
2023/02/20 04:40:56;;;;;;;9.52;8.52;;;;;;;12.14;46.56;99667.50;5029829;28;20037;-80
2023/02/20 04:43:22;;;;;;;8.88;8.02;;;;;;;11.93;46.67;99628.56;5031153;28;20034;-80
2023/02/20 04:45:47;;;;;;;10.15;8.10;;;;;;;12.89;46.59;99782.91;5029918;28;20037;-79
2023/02/20 04:48:13;;;;;;;10.32;8.77;;;;;;;12.55;46.53;99736.63;5031118;28;20052;-80
2023/02/20 04:50:39;;;;;;;9.30;8.38;;;;;;;12.38;46.62;99700.78;5031036;28;20036;-80
2023/02/20 04:53:05;;;;;;;11.02;9.20;;;;;;;12.81;46.66;99788.31;5029616;28;20063;-80
2023/02/20 04:55:31;;;;;;;11.95;9.30;;;;;;;12.31;46.69;99736.94;5029650;28;20021;-80
2023/02/20 04:57:57;;;;;;;12.77;10.00;;;;;;;12.19;46.86;99693.41;5030926;28;20486;-80
2023/02/20 05:00:24;;;;;;;10.25;9.02;;;;;;;12.85;46.82;99801.00;5031346;28;20026;-80
2023/02/20 05:02:50;;;;;;;10.13;8.18;;;;;;;12.03;47.12;99694.44;5031008;28;20087;-80
2023/02/20 05:05:28;;;;;;;11.57;9.35;;;;;;;12.79;47.04;99803.56;5031047;28;20029;-80
2023/02/20 05:08:02;;;;;;;10.32;9.20;;;;;;;12.27;47.20;99746.25;5030981;28;20044;-79
2023/02/20 05:10:29;;;;;;;11.02;8.65;;;;;;;12.66;47.16;99788.34;5031041;28;20025;-80
2023/02/20 05:12:56;;;;;;;11.02;8.88;;;;;;;12.39;47.34;99750.91;5030783;28;20033;-80
2023/02/20 05:15:22;;;;;;;10.23;8.98;;;;;;;12.37;46.79;99752.09;5030819;28;20022;-80
2023/02/20 05:17:48;;;;;;;9.95;8.93;;;;;;;12.66;47.36;99834.19;5030642;28;20061;-80
2023/02/20 05:20:14;;;;;;;21.33;15.13;;;;;;;12.50;47.59;99801.75;5030707;28;20053;-80
2023/02/20 05:22:39;;;;;;;10.80;9.73;;;;;;;11.68;47.29;99669.47;5030678;28;20137;-81
2023/02/20 05:25:05;;;;;;;13.10;8.93;;;;;;;12.45;47.32;99828.78;5030709;28;20104;-80
2023/02/20 05:27:31;;;;;;;11.60;8.63;;;;;;;12.30;47.64;99772.38;5030601;28;20502;-80
2023/02/20 05:29:59;;;;;;;9.13;8.07;;;;;;;12.62;47.40;99838.19;5029375;28;20120;-80
2023/02/20 05:32:26;;;;;;;11.32;8.82;;;;;;;12.41;47.23;99807.16;5032069;28;20620;-80
2023/02/20 05:34:52;;;;;;;9.35;7.07;;;;;;;11.79;47.75;99719.31;5033141;28;20086;-80
2023/02/20 05:37:19;;;;;;;8.85;7.65;;;;;;;12.20;47.72;99782.41;5034320;28;20096;-80
2023/02/20 05:39:45;;;;;;;9.27;8.13;;;;;;;12.27;46.97;99793.91;5032865;28;20029;-80
2023/02/20 05:42:11;;;;;;;9.95;7.95;;;;;;;11.94;47.41;99749.28;5033888;28;20025;-80
2023/02/20 05:44:37;;;;;;;9.45;7.60;;;;;;;11.84;47.21;99727.53;5034164;28;20032;-80
2023/02/20 05:47:03;;;;;;;11.40;8.55;;;;;;;12.35;47.06;99852.06;5034257;28;20025;-80
2023/02/20 05:49:28;;;;;;;9.00;7.10;;;;;;;12.03;46.91;99789.72;5034164;28;20040;-80
2023/02/20 05:51:57;;;;;;;8.90;7.25;;;;;;;11.88;46.78;99751.81;5032762;28;20038;-80
2023/02/20 05:54:23;;;;;;;9.40;6.97;;;;;;;12.34;46.47;99831.91;5034021;28;20029;-80
2023/02/20 05:56:50;;;;;;;8.60;5.75;;;;;;;12.26;46.21;99846.03;5034127;28;20034;-80
2023/02/20 05:59:19;;;;;;;6.65;5.30;;;;;;;12.61;46.38;99881.56;5033978;28;20052;-79
2023/02/20 06:01:45;;;;;;;9.52;6.68;;;;;;;11.85;45.99;99811.19;5032383;28;20493;-80
2023/02/20 06:04:10;;;;;;;12.35;7.82;;;;;;;11.83;46.00;99756.81;5032854;28;20021;-80
2023/02/20 06:06:38;;;;;;;9.40;4.63;;;;;;;12.71;45.71;99884.81;5032326;28;20104;-80
2023/02/20 06:09:11;;;;;;;5.45;3.55;;;;;;;12.62;45.22;99885.03;5033575;28;20104;-80
2023/02/20 06:11:38;;;;;;;8.18;3.80;;;;;;;12.77;44.93;99906.28;5033511;28;20029;-79
2023/02/20 06:14:05;;;;;;;6.45;3.05;;;;;;;12.83;44.70;99897.59;5033702;28;20029;-80
2023/02/20 06:16:31;;;;;;;6.20;2.67;;;;;;;12.27;44.62;99809.78;5033680;28;20029;-80
2023/02/20 06:18:59;;;;;;;11.82;2.80;;;;;;;12.30;44.54;99835.91;5032284;28;20029;-80
2023/02/20 06:21:25;;;;;;;3.38;2.67;;;;;;;12.93;44.19;99932.56;5032348;28;20053;-80
2023/02/20 06:23:53;;;;;;;9.13;3.70;;;;;;;12.92;43.99;99920.34;5038227;28;20046;-81
2023/02/20 06:26:19;;;;;;;3.58;2.83;;;;;;;12.47;44.23;99900.94;5037262;28;20095;-80
2023/02/20 06:28:46;;;;;;;11.15;2.72;;;;;;;12.20;44.29;99806.25;5031978;28;20037;-80
2023/02/20 06:31:11;;;;;;;5.72;1.90;;;;;;;12.95;44.27;99925.25;5031749;28;20060;-80
2023/02/20 06:33:37;;;;;;;3.92;1.80;;;;;;;12.96;43.79;99926.91;5032763;28;20061;-80
2023/02/20 06:36:04;;;;;;;4.38;2.33;;;;;;;13.04;43.73;99909.06;5033004;28;20055;-81
2023/02/20 06:38:30;;;;;;;4.53;2.17;;;;;;;12.45;43.63;99823.50;5032937;28;20048;-79
2023/02/20 06:40:55;;;;;;;5.15;2.20;;;;;;;12.63;43.79;99863.69;5032862;28;20501;-81
2023/02/20 06:43:21;;;;;;;15.52;2.90;;;;;;;12.99;43.40;99913.28;5032566;28;20491;-80
2023/02/20 06:45:46;;;;;;;3.20;2.30;;;;;;;12.91;43.79;99894.84;5014335;28;20018;-81
2023/02/20 06:48:16;;;;;;;5.35;2.58;;;;;;;12.91;43.28;99882.41;5011809;28;20037;-81
2023/02/20 06:50:41;;;;;;;3.92;2.30;;;;;;;13.12;43.19;99891.41;5012986;28;20083;-80
2023/02/20 06:53:07;;;;;;;5.35;2.10;;;;;;;12.39;42.97;99789.81;5027792;28;20490;-81
2023/02/20 06:55:33;;;;;;;7.65;2.58;;;;;;;12.60;43.05;99805.75;5031363;28;20037;-79
2023/02/20 06:57:59;;;;;;;6.43;2.40;;;;;;;13.00;42.89;99861.91;5032586;28;20025;-80
2023/02/20 07:00:25;;;;;;;6.32;2.38;;;;;;;12.65;43.04;99848.44;5026884;28;20148;-79
2023/02/20 07:02:50;;;;;;;5.82;1.90;;;;;;;12.52;42.97;99803.22;5025790;28;20029;-79
2023/02/20 07:05:15;;;;;;;2.72;1.75;;;;;;;12.95;42.57;99857.19;5014234;28;20026;-80
2023/02/20 07:07:41;;;;;;;7.38;3.05;;;;;;;12.34;42.33;99768.34;5016643;28;20030;-79
2023/02/20 07:10:07;;;;;;;10.98;2.22;;;;;;;12.80;42.47;99835.19;4998013;28;20049;-80
2023/02/20 07:12:36;;;;;;;5.30;1.70;;;;;;;12.82;42.28;99846.41;5005496;28;20038;-79
2023/02/20 07:15:02;;;;;;;5.38;2.05;;;;;;;12.82;42.16;99835.81;5017902;28;20032;-79
2023/02/20 07:17:28;;;;;;;3.15;2.00;;;;;;;12.80;42.15;99831.72;5020980;28;20105;-79
2023/02/20 07:19:53;;;;;;;12.85;4.65;;;;;;;12.51;41.86;99759.19;5011566;28;20106;-79
2023/02/20 07:22:18;;;;;;;7.30;2.33;;;;;;;12.42;41.56;99778.84;5010680;28;20495;-79
2023/02/20 07:24:49;;;;;;;5.70;1.88;;;;;;;13.11;40.99;99879.16;5022751;28;20030;-80
2023/02/20 07:27:14;;;;;;;10.95;1.90;;;;;;;12.78;41.27;99826.59;5005353;28;20036;-80
2023/02/20 07:29:40;;;;;;;2.38;1.38;;;;;;;13.09;40.98;99878.53;5010343;28;20037;-79
2023/02/20 07:32:07;;;;;;;3.67;1.60;;;;;;;13.33;40.68;99892.31;5007674;28;20034;-80
2023/02/20 07:34:33;;;;;;;3.20;1.98;;;;;;;13.01;40.76;99852.97;5011867;28;20106;-80
2023/02/20 07:36:58;;;;;;;5.03;1.92;;;;;;;13.27;40.24;99886.94;5014034;28;20463;-80
2023/02/20 07:39:25;;;;;;;5.05;1.73;;;;;;;13.43;40.10;99920.41;5012845;28;20060;-80
2023/02/20 07:41:50;;;;;;;3.35;1.90;;;;;;;13.75;40.06;99941.16;5010841;28;20022;-79
2023/02/20 07:44:16;;;;;;;3.03;1.50;;;;;;;13.68;40.02;99911.91;5011988;28;20092;-80
2023/02/20 07:46:42;;;;;;;3.03;1.77;;;;;;;13.68;39.95;99903.94;5011476;28;20038;-80
2023/02/20 07:49:08;;;;;;;5.10;1.85;;;;;;;13.67;39.69;99926.16;5011549;28;20034;-80
2023/02/20 07:51:33;;;;;;;3.90;1.70;;;;;;;13.93;39.35;99933.56;5012427;28;20029;-79
2023/02/20 07:53:59;;;;;;;4.68;1.80;;;;;;;13.35;39.46;99837.25;5008838;28;20484;-78
2023/02/20 07:56:24;;;;;;;7.75;1.83;;;;;;;13.45;39.48;99852.88;5020390;28;20021;-79
2023/02/20 07:58:50;;;;;;;6.90;2.40;;;;;;;13.78;38.89;99897.50;5025575;28;20483;-80
2023/02/20 08:01:16;;;;;;;6.63;1.52;;;;;;;13.75;39.04;99904.00;5031381;28;20021;-80
2023/02/20 08:03:41;;;;;;;7.85;2.20;;;;;;;14.00;39.02;99933.63;5015749;28;20060;-80
2023/02/20 08:06:06;;;;;;;4.85;1.92;;;;;;;13.49;38.64;99859.47;5009701;28;20029;-80
2023/02/20 08:08:32;;;;;;;2.25;1.27;;;;;;;13.90;38.57;99943.75;5008720;28;20030;-81
2023/02/20 08:10:58;;;;;;;9.40;2.05;;;;;;;13.93;38.33;99938.88;5009096;28;20085;-81
2023/02/20 08:13:24;;;;;;;3.15;1.48;;;;;;;13.74;38.59;99878.47;5008528;28;20545;-81
2023/02/20 08:15:49;;;;;;;3.65;1.75;;;;;;;13.33;38.77;99819.88;5009839;28;20042;-81
2023/02/20 08:18:15;;;;;;;2.63;2.10;;;;;;;14.10;38.69;99922.69;5005517;28;20034;-80
2023/02/20 08:20:41;;;;;;;4.80;2.10;;;;;;;14.24;38.48;99959.81;5006595;28;20487;-81
2023/02/20 08:23:16;;;;;;;3.70;2.10;;;;;;;14.33;37.90;99949.88;5010672;28;20074;-81
2023/02/20 08:25:42;;;;;;;10.13;2.90;;;;;;;14.13;38.32;99917.84;4998237;28;20393;-80
2023/02/20 08:28:07;;;;;;;5.47;2.17;;;;;;;14.24;38.14;99905.88;4997781;28;20037;-81
2023/02/20 08:30:33;;;;;;;3.50;2.10;;;;;;;13.91;37.95;99863.91;5004999;28;20046;-80
2023/02/20 08:33:01;;;;;;;5.82;2.70;;;;;;;14.26;38.18;99943.69;5010269;28;20041;-81
2023/02/20 08:35:26;;;;;;;9.88;2.70;;;;;;;14.30;37.89;99913.06;5016053;28;20076;-81
2023/02/20 08:37:51;;;;;;;7.20;2.55;;;;;;;14.34;37.53;99893.06;5008591;28;20030;-80
2023/02/20 08:40:17;;;;;;;4.10;2.13;;;;;;;14.29;37.50;99882.22;4999588;28;20026;-80
2023/02/20 08:42:43;;;;;;;7.30;2.00;;;;;;;14.45;37.11;99899.72;4993254;28;20516;-79
2023/02/20 08:45:09;;;;;;;7.15;2.28;;;;;;;14.76;36.84;99945.28;5016629;28;20411;-80
2023/02/20 08:47:34;;;;;;;7.68;4.05;;;;;;;14.68;37.05;99918.88;5003051;28;20494;-81
2023/02/20 08:50:00;;;;;;;4.55;3.22;;;;;;;14.59;36.64;99891.63;5003066;28;20025;-80
2023/02/20 08:52:26;;;;;;;4.10;2.03;;;;;;;14.54;36.41;99862.16;5021678;28;20093;-80
2023/02/20 08:54:51;;;;;;;8.13;2.20;;;;;;;14.86;35.61;99915.69;5024521;28;20037;-81
2023/02/20 08:57:18;;;;;;;5.80;2.38;;;;;;;14.55;34.83;99847.03;5012528;28;20033;-81
2023/02/20 08:59:43;;;;;;;5.50;2.30;;;;;;;14.54;34.76;99840.91;5011729;28;20147;-81
2023/02/20 09:02:18;;;;;;;7.93;3.00;;;;;;;15.17;34.20;99940.03;4992252;28;20018;-81
2023/02/20 09:04:45;;;;;;;8.98;2.47;;;;;;;15.17;34.22;99924.06;5013179;28;20097;-81
2023/02/20 09:07:11;;;;;;;10.63;3.20;;;;;;;14.98;33.66;99898.19;5009438;28;20426;-82
2023/02/20 09:09:36;;;;;;;6.70;2.60;;;;;;;14.69;34.13;99843.44;5013241;28;20037;-81
2023/02/20 09:12:02;;;;;;;5.43;2.38;;;;;;;15.30;34.03;99975.66;5014566;28;20030;-81
2023/02/20 09:14:27;;;;;;;5.72;2.42;;;;;;;15.12;33.82;99918.50;5022832;28;20516;-80
2023/02/20 09:16:53;;;;;;;4.22;2.65;;;;;;;14.81;33.62;99843.69;5016169;28;20061;-80
2023/02/20 09:19:20;;;;;;;8.13;4.00;;;;;;;15.14;33.18;99908.50;5023513;28;20594;-81
2023/02/20 09:21:47;;;;;;;7.00;3.58;;;;;;;14.76;32.98;99814.22;5017010;28;20050;-81
2023/02/20 09:24:12;;;;;;;4.28;2.85;;;;;;;15.00;32.54;99848.31;5021948;28;20041;-81
2023/02/20 09:26:38;;;;;;;7.10;3.38;;;;;;;14.90;31.84;99831.91;5034144;28;20025;-82
2023/02/20 09:29:03;;;;;;;8.88;2.20;;;;;;;15.72;30.78;99945.38;5029760;28;20022;-81
2023/02/20 09:31:29;;;;;;;8.02;2.70;;;;;;;15.38;30.79;99864.56;5014056;28;20200;-80
2023/02/20 09:33:54;;;;;;;4.70;1.73;;;;;;;15.31;29.46;99902.81;5029546;28;20064;-80
2023/02/20 09:36:20;;;;;;;8.60;2.08;;;;;;;15.33;29.58;99880.31;4994784;28;20396;-80
2023/02/20 09:38:45;;;;;;;2.90;1.65;;;;;;;15.31;29.09;99886.88;4994691;28;20033;-80
2023/02/20 09:41:32;;;;;;;10.20;1.90;;;;;;;15.76;28.33;99958.06;4994628;28;20513;-80
2023/02/20 09:44:18;;;;;;;2.47;1.40;;;;;;;15.78;28.84;99961.34;4994898;28;20038;-81
2023/02/20 09:46:45;;;;;;;3.25;2.20;;;;;;;15.06;29.21;99812.94;4993199;28;20034;-81
2023/02/20 09:49:13;;;;;;;3.50;2.03;;;;;;;16.17;29.31;99989.06;5027286;28;20037;-81
2023/02/20 09:51:43;;;;;;;2.80;1.60;;;;;;;15.35;28.88;99850.84;5014968;28;20065;-80
2023/02/20 09:54:31;;;;;;;3.72;2.42;;;;;;;16.32;28.88;99997.69;5020797;28;20030;-80
2023/02/20 09:57:00;;;;;;;6.97;2.85;;;;;;;16.27;27.64;99992.16;5013669;28;20445;-80
2023/02/20 09:59:31;;;;;;;4.15;1.63;;;;;;;16.24;27.59;99989.09;5019869;28;20049;-81
2023/02/20 10:02:24;;;;;;;4.70;2.42;;;;;;;16.30;26.45;99998.94;5023356;28;20042;-81
2023/02/20 10:05:01;;;;;;;7.07;2.03;;;;;;;16.35;26.27;99972.47;4993001;28;20590;-82
2023/02/20 10:07:32;;;;;;;5.50;2.83;;;;;;;15.72;25.48;99897.44;5009788;28;20029;-81
2023/02/20 10:09:59;;;;;;;3.90;3.10;;;;;;;16.46;26.26;99978.06;5012942;28;20026;-82
2023/02/20 10:12:44;;;;;;;6.05;3.58;;;;;;;16.59;26.53;99993.22;5012116;28;20415;-82
2023/02/20 10:15:21;;;;;;;7.95;4.00;;;;;;;16.65;25.65;99964.91;5013385;28;20523;-81
2023/02/20 10:18:03;;;;;;;7.40;4.13;;;;;;;16.61;26.54;99959.16;5011786;28;20037;-81
2023/02/20 10:20:54;;;;;;;4.43;3.28;;;;;;;16.70;25.50;99952.63;5013706;28;20048;-81
2023/02/20 10:23:31;;;;;;;3.30;1.98;;;;;;;16.89;25.67;99982.94;5015695;28;20575;-81
2023/02/20 10:26:01;;;;;;;2.90;1.85;;;;;;;16.91;25.39;99998.75;5016987;28;20029;-81
2023/02/20 10:28:27;;;;;;;3.80;2.33;;;;;;;15.80;25.10;99778.28;5014418;28;20030;-80
2023/02/20 10:31:03;;;;;;;6.20;3.88;;;;;;;16.41;24.58;99870.44;5012204;28;20030;-81
2023/02/20 10:33:41;;;;;;;3.42;2.45;;;;;;;16.86;24.08;99940.69;5012913;28;20029;-81
2023/02/20 10:36:21;;;;;;;7.20;3.60;;;;;;;16.70;24.63;99882.47;5019341;28;20032;-81
2023/02/20 10:39:10;;;;;;;4.75;2.92;;;;;;;17.35;24.36;99963.34;4993402;28;20030;-81
2023/02/20 10:42:03;;;;;;;7.30;2.30;;;;;;;17.26;23.09;99968.09;4996694;28;20113;-81
2023/02/20 10:44:31;;;;;;;5.88;2.08;;;;;;;17.35;24.38;99969.50;5006030;28;20025;-80
2023/02/20 10:47:03;;;;;;;2.85;2.45;;;;;;;17.47;24.42;99978.47;5019544;28;20129;-80
2023/02/20 10:49:48;;;;;;;7.00;3.28;;;;;;;17.14;23.60;99911.09;5011268;28;20037;-80
2023/02/20 10:52:18;;;;;;;4.70;3.42;;;;;;;16.94;23.51;99889.78;5012372;28;20038;-81
2023/02/20 10:54:50;;;;;;;3.95;2.70;;;;;;;17.49;22.47;99946.22;5012164;28;20518;-81
2023/02/20 10:57:27;;;;;;;;;;;;;;;17.49;22.53;99956.91;5012944;28;20037;-81
2023/02/20 10:59:58;;;;;;;6.47;2.58;;;;;;;17.61;23.08;99995.25;5002835;28;19910;-80
2023/02/20 11:02:28;;;;;;;3.70;2.40;;;;;;;17.62;22.50;99980.88;4991568;28;20030;-82
2023/02/20 11:05:00;;;;;;;2.58;1.90;;;;;;;16.91;21.55;99884.88;4992631;28;20050;-80
2023/02/20 11:07:25;;;;;;;3.45;2.13;;;;;;;17.34;22.45;99959.03;4992726;28;20023;-80
2023/02/20 11:09:51;;;;;;;4.38;1.88;;;;;;;17.71;22.47;99992.16;5024070;28;20498;-80
2023/02/20 11:12:31;;;;;;;4.95;2.22;;;;;;;17.87;22.62;99983.69;5009134;28;20030;-80
2023/02/20 11:15:00;;;;;;;4.65;2.10;;;;;;;17.77;22.66;99948.56;5023109;28;20029;-79
2023/02/20 11:17:28;;;;;;;11.60;4.78;;;;;;;18.15;22.45;99987.81;5013364;28;20040;-80
2023/02/20 11:20:03;;;;;;;7.00;3.40;;;;;;;17.82;21.11;99970.13;5012277;28;20444;-80
2023/02/20 11:22:48;;;;;;;5.10;2.50;;;;;;;18.11;21.23;99987.44;5012979;28;20068;-80
2023/02/20 11:25:33;;;;;;;8.18;2.45;;;;;;;18.14;21.20;99967.47;5014070;28;20061;-81
2023/02/20 11:28:20;;;;;;;2.17;1.67;;;;;;;17.57;21.41;99916.63;5010768;28;20087;-81
2023/02/20 11:31:04;;;;;;;3.70;2.35;;;;;;;17.78;21.91;99940.34;5006964;28;20124;-81
2023/02/20 11:33:33;;;;;;;5.55;3.25;;;;;;;17.96;21.93;99942.31;4996992;28;20034;-81
2023/02/20 11:36:13;;;;;;;5.80;3.22;;;;;;;17.82;21.15;99926.56;5008512;28;20030;-81
2023/02/20 11:38:39;;;;;;;4.68;2.50;;;;;;;17.41;21.72;99845.88;5010365;28;20037;-80
2023/02/20 11:41:27;;;;;;;5.40;2.00;;;;;;;17.87;21.27;99905.41;5020306;28;20033;-82
2023/02/20 11:44:12;;;;;;;4.60;1.90;;;;;;;18.12;20.33;99954.31;5015618;28;20034;-81
2023/02/20 11:46:39;;;;;;;5.35;2.30;;;;;;;18.10;21.64;99961.75;5012423;28;20052;-80
2023/02/20 11:49:21;;;;;;;2.67;1.80;;;;;;;18.02;21.13;99968.16;5011484;28;20034;-81
2023/02/20 11:51:48;;;;;;;4.65;1.83;;;;;;;17.80;21.81;99940.13;5015241;28;20034;-80
2023/02/20 11:54:14;;;;;;;2.42;1.65;;;;;;;18.02;21.48;99980.72;5010764;28;20029;-81
2023/02/20 11:56:57;;;;;;;5.85;2.10;;;;;;;17.98;21.28;99966.13;5014280;28;20045;-81
2023/02/20 11:59:31;;;;;;;3.92;1.95;;;;;;;17.88;21.30;99957.78;5006741;28;20057;-81